createdAt,value
2017-11-10T00:00:15.198Z,9.00
2017-11-10T00:02:41.745Z,8.90
2017-11-10T00:05:08.157Z,9.00
2017-11-10T00:07:34.569Z,9.00
2017-11-10T00:10:01.807Z,8.90
2017-11-10T00:12:28.950Z,9.00
2017-11-10T00:14:55.388Z,9.00
2017-11-10T00:17:21.793Z,9.00
2017-11-10T00:19:48.220Z,8.90
2017-11-10T00:22:14.681Z,8.90
2017-11-10T00:24:41.087Z,8.90
2017-11-10T00:27:07.528Z,8.90
2017-11-10T00:29:34.788Z,8.90
2017-11-10T00:32:01.236Z,8.90
2017-11-10T00:34:27.640Z,8.90
2017-11-10T00:36:54.178Z,9.00
2017-11-10T00:39:20.609Z,9.00
2017-11-10T00:41:47.019Z,9.00
2017-11-10T00:44:13.497Z,8.90
2017-11-10T00:46:39.926Z,8.70
2017-11-10T00:49:06.349Z,8.70
2017-11-10T00:51:32.768Z,8.70
2017-11-10T00:53:59.183Z,8.80
2017-11-10T00:56:25.598Z,8.90
2017-11-10T00:58:52.000Z,8.90
2017-11-10T01:01:19.246Z,8.80
2017-11-10T01:03:45.653Z,8.90
2017-11-10T01:06:12.113Z,8.90
2017-11-10T01:08:38.536Z,8.90
2017-11-10T01:11:04.980Z,8.90
2017-11-10T01:13:31.393Z,8.80
2017-11-10T01:15:57.834Z,8.80
2017-11-10T01:18:24.241Z,8.80
2017-11-10T01:20:50.674Z,8.90
2017-11-10T01:23:17.138Z,8.90
2017-11-10T01:25:43.537Z,8.80
2017-11-10T01:28:10.112Z,8.70
2017-11-10T01:30:36.650Z,8.80
2017-11-10T01:33:03.102Z,8.80
2017-11-10T01:35:29.541Z,8.80
2017-11-10T01:37:56.725Z,8.90
2017-11-10T01:40:23.207Z,8.90
2017-11-10T01:42:49.701Z,8.80
2017-11-10T01:45:16.370Z,8.80
2017-11-10T01:47:42.848Z,8.70
2017-11-10T01:50:09.344Z,8.80
2017-11-10T01:52:36.591Z,8.90
2017-11-10T01:55:14.237Z,8.80
2017-11-10T01:57:40.685Z,8.80
2017-11-10T02:00:07.228Z,8.90
2017-11-10T02:02:33.829Z,8.90
2017-11-10T02:05:00.262Z,8.90
2017-11-10T02:07:26.681Z,8.90
2017-11-10T02:09:53.968Z,8.90
2017-11-10T02:12:20.415Z,8.80
2017-11-10T02:14:46.880Z,8.70
2017-11-10T02:17:13.293Z,8.80
2017-11-10T02:19:39.769Z,8.80
2017-11-10T02:22:07.010Z,8.90
2017-11-10T02:24:34.295Z,8.90
2017-11-10T02:27:00.777Z,8.80
2017-11-10T02:29:27.245Z,8.70
2017-11-10T02:31:53.725Z,8.60
2017-11-10T02:34:20.321Z,8.60
2017-11-10T02:36:46.764Z,8.60
2017-11-10T02:39:13.254Z,8.50
2017-11-10T02:41:39.825Z,8.60
2017-11-10T02:44:08.444Z,8.60
2017-11-10T02:46:36.907Z,8.60
2017-11-10T02:49:03.392Z,8.60
2017-11-10T02:51:29.973Z,8.60
2017-11-10T02:53:56.419Z,8.70
2017-11-10T02:56:22.865Z,8.60
2017-11-10T02:58:49.326Z,8.60
2017-11-10T03:01:15.858Z,8.70
2017-11-10T03:03:42.305Z,8.60
2017-11-10T03:06:09.477Z,8.50
2017-11-10T03:08:35.913Z,8.50
2017-11-10T03:11:03.494Z,8.50
2017-11-10T03:13:29.969Z,8.40
2017-11-10T03:15:56.508Z,8.30
2017-11-10T03:18:22.961Z,8.30
2017-11-10T03:20:50.222Z,8.50
2017-11-10T03:23:16.648Z,8.40
2017-11-10T03:25:43.865Z,8.40
2017-11-10T03:28:10.518Z,8.40
2017-11-10T03:30:37.084Z,8.40
2017-11-10T03:33:03.570Z,8.50
2017-11-10T03:35:30.013Z,8.50
2017-11-10T03:37:56.440Z,8.50
2017-11-10T03:40:22.942Z,8.60
2017-11-10T03:42:49.373Z,8.60
2017-11-10T03:45:15.828Z,8.60
2017-11-10T03:47:43.011Z,8.60
2017-11-10T03:50:09.569Z,8.50
2017-11-10T03:52:36.756Z,8.60
2017-11-10T03:55:03.204Z,8.60
2017-11-10T03:57:29.637Z,8.50
2017-11-10T03:59:56.116Z,8.50
2017-11-10T04:02:23.313Z,8.40
2017-11-10T04:04:49.756Z,8.40
2017-11-10T04:07:16.189Z,8.40
2017-11-10T04:09:42.676Z,8.50
2017-11-10T04:12:09.096Z,8.50
2017-11-10T04:14:36.584Z,8.60
2017-11-10T04:17:03.070Z,8.60
2017-11-10T04:19:29.481Z,8.50
2017-11-10T04:21:55.943Z,8.40
2017-11-10T04:24:23.102Z,8.20
2017-11-10T04:26:50.308Z,8.30
2017-11-10T04:29:16.745Z,8.30
2017-11-10T04:31:43.260Z,8.40
2017-11-10T04:34:09.765Z,8.50
2017-11-10T04:36:36.932Z,8.40
2017-11-10T04:39:03.443Z,8.40
2017-11-10T04:41:30.699Z,8.50
2017-11-10T04:43:57.157Z,8.50
2017-11-10T04:46:23.590Z,8.50
2017-11-10T04:48:50.029Z,8.40
2017-11-10T04:51:17.540Z,8.40
2017-11-10T04:53:44.005Z,8.40
2017-11-10T04:56:10.460Z,8.30
2017-11-10T04:58:36.941Z,8.40
2017-11-10T05:01:03.501Z,8.40
2017-11-10T05:03:30.702Z,8.60
2017-11-10T05:05:57.156Z,8.50
2017-11-10T05:08:23.596Z,8.60
2017-11-10T05:10:50.434Z,8.50
2017-11-10T05:13:17.625Z,8.60
2017-11-10T05:15:44.116Z,8.60
2017-11-10T05:18:10.589Z,8.60
2017-11-10T05:20:37.113Z,8.60
2017-11-10T05:23:03.624Z,8.60
2017-11-10T05:25:30.093Z,8.60
2017-11-10T05:27:56.600Z,8.60
2017-11-10T05:30:23.876Z,8.70
2017-11-10T05:32:50.369Z,8.70
2017-11-10T05:35:16.865Z,8.70
2017-11-10T05:37:43.409Z,8.70
2017-11-10T05:40:10.325Z,8.70
2017-11-10T05:42:36.968Z,8.70
2017-11-10T05:45:03.543Z,8.70
2017-11-10T05:47:30.028Z,8.60
2017-11-10T05:49:57.280Z,8.70
2017-11-10T05:52:24.493Z,8.60
2017-11-10T05:54:50.973Z,8.60
2017-11-10T05:57:17.519Z,8.60
2017-11-10T05:59:44.031Z,8.70
2017-11-10T06:02:11.280Z,8.70
2017-11-10T06:04:38.444Z,8.60
2017-11-10T06:07:05.636Z,8.60
2017-11-10T06:09:32.148Z,8.60
2017-11-10T06:11:58.595Z,8.60
2017-11-10T06:14:25.064Z,8.50
2017-11-10T06:16:51.513Z,8.40
2017-11-10T06:19:19.028Z,8.60
2017-11-10T06:21:45.777Z,8.50
2017-11-10T06:24:12.380Z,8.40
2017-11-10T06:26:38.883Z,8.40
2017-11-10T06:29:05.610Z,8.60
2017-11-10T06:31:35.168Z,8.70
2017-11-10T06:34:01.649Z,8.70
2017-11-10T06:36:28.148Z,8.70
2017-11-10T06:38:54.870Z,8.80
2017-11-10T06:41:21.461Z,8.80
2017-11-10T06:43:47.875Z,8.80
2017-11-10T06:46:14.512Z,8.80
2017-11-10T06:48:41.045Z,8.80
2017-11-10T06:51:07.539Z,8.90
2017-11-10T06:53:33.985Z,8.90
2017-11-10T06:56:00.437Z,8.90
2017-11-10T06:58:26.906Z,8.90
2017-11-10T07:00:53.445Z,8.90
2017-11-10T07:03:20.900Z,9.00
2017-11-10T07:05:48.101Z,9.00
2017-11-10T07:08:14.653Z,9.00
2017-11-10T07:10:41.448Z,9.00
2017-11-10T07:13:07.949Z,8.90
2017-11-10T07:15:34.420Z,8.90
2017-11-10T07:18:01.599Z,8.90
2017-11-10T07:20:28.076Z,8.90
2017-11-10T07:22:54.501Z,8.90
2017-11-10T07:25:20.888Z,8.90
2017-11-10T07:27:47.352Z,9.00
2017-11-10T07:30:13.789Z,9.10
2017-11-10T07:32:40.201Z,9.10
2017-11-10T07:35:06.625Z,9.10
2017-11-10T07:37:33.052Z,9.10
2017-11-10T07:39:59.479Z,9.10
2017-11-10T07:42:25.925Z,9.10
2017-11-10T07:44:52.319Z,9.20
2017-11-10T07:47:18.738Z,9.20
2017-11-10T07:49:45.279Z,9.30
2017-11-10T07:52:11.692Z,9.30
2017-11-10T07:54:38.485Z,9.20
2017-11-10T07:57:04.985Z,9.30
2017-11-10T07:59:31.461Z,9.30
2017-11-10T08:01:58.221Z,9.30
2017-11-10T08:04:25.685Z,9.40
2017-11-10T08:06:52.197Z,9.40
2017-11-10T08:09:18.791Z,9.40
2017-11-10T08:11:45.556Z,9.40
2017-11-10T08:14:12.013Z,9.40
2017-11-10T08:16:38.435Z,9.30
2017-11-10T08:19:04.877Z,9.40
2017-11-10T08:21:31.589Z,9.50
2017-11-10T08:23:58.028Z,9.60
2017-11-10T08:26:24.505Z,9.60
2017-11-10T08:28:50.933Z,9.60
2017-11-10T08:31:17.638Z,9.60
2017-11-10T08:33:44.113Z,9.70
2017-11-10T08:36:10.915Z,9.70
2017-11-10T08:38:37.533Z,9.70
2017-11-10T08:41:04.837Z,9.80
2017-11-10T08:43:31.329Z,9.70
2017-11-10T08:45:58.488Z,9.90
2017-11-10T08:48:25.705Z,10.00
2017-11-10T08:50:53.403Z,10.10
2017-11-10T08:53:20.188Z,10.10
2017-11-10T08:55:46.635Z,10.10
2017-11-10T08:58:13.025Z,9.90
2017-11-10T09:00:39.543Z,9.80
2017-11-10T09:03:06.716Z,9.80
2017-11-10T09:05:33.133Z,9.80
2017-11-10T09:08:00.343Z,10.20
2017-11-10T09:10:26.776Z,10.10
2017-11-10T09:12:53.460Z,10.00
2017-11-10T09:15:20.290Z,10.00
2017-11-10T09:17:48.129Z,10.20
2017-11-10T09:20:15.423Z,10.40
2017-11-10T09:22:42.022Z,10.40
2017-11-10T09:25:08.859Z,10.20
2017-11-10T09:27:35.637Z,10.20
2017-11-10T09:30:08.237Z,10.30
2017-11-10T09:35:38.549Z,10.40
2017-11-10T09:38:11.618Z,10.20
2017-11-10T09:40:43.299Z,10.20
2017-11-10T09:43:24.681Z,10.30
2017-11-10T09:45:54.777Z,10.20
2017-11-10T09:48:27.148Z,10.20
2017-11-10T09:50:59.946Z,10.20
2017-11-10T09:53:36.389Z,10.30
2017-11-10T09:56:09.224Z,10.20
2017-11-10T09:58:37.685Z,10.30
2017-11-10T10:01:10.338Z,10.40
2017-11-10T10:03:38.760Z,10.40
2017-11-10T10:06:06.257Z,10.50
2017-11-10T10:08:39.673Z,10.20
2017-11-10T10:11:18.789Z,10.00
2017-11-10T10:13:51.942Z,10.10
2017-11-10T10:16:24.605Z,10.10
2017-11-10T10:22:08.229Z,10.20
2017-11-10T10:24:34.685Z,10.20
2017-11-10T10:27:01.839Z,10.10
2017-11-10T10:29:28.616Z,10.10
2017-11-10T10:31:55.073Z,10.20
2017-11-10T10:34:21.665Z,10.30
2017-11-10T10:36:48.184Z,10.40
2017-11-10T10:39:15.437Z,10.50
2017-11-10T10:41:42.689Z,10.60
2017-11-10T10:44:09.875Z,10.80
2017-11-10T10:46:36.420Z,10.80
2017-11-10T10:49:03.337Z,11.00
2017-11-10T10:51:29.841Z,11.10
2017-11-10T10:53:56.985Z,10.80
2017-11-10T10:56:23.719Z,10.70
2017-11-10T10:58:50.962Z,10.60
2017-11-10T11:01:17.385Z,10.60
2017-11-10T11:03:43.788Z,10.50
2017-11-10T11:06:10.256Z,10.50
2017-11-10T11:08:36.922Z,10.70
2017-11-10T11:11:03.443Z,11.00
2017-11-10T11:13:29.943Z,11.20
2017-11-10T11:15:56.368Z,11.40
2017-11-10T11:18:22.789Z,11.40
2017-11-10T11:20:49.289Z,11.30
2017-11-10T11:23:15.787Z,11.30
2017-11-10T11:25:42.449Z,11.40
2017-11-10T11:28:08.912Z,11.40
2017-11-10T11:30:36.141Z,11.60
2017-11-10T11:33:02.665Z,11.60
2017-11-10T11:35:29.134Z,12.00
2017-11-10T11:37:56.290Z,12.70
2017-11-10T11:40:23.597Z,12.70
2017-11-10T11:42:50.242Z,12.70
2017-11-10T11:45:17.035Z,12.80
2017-11-10T11:47:43.568Z,13.80
2017-11-10T11:50:10.080Z,15.00
2017-11-10T11:52:37.254Z,16.10
2017-11-10T11:55:03.685Z,16.10
2017-11-10T11:57:30.404Z,18.50
2017-11-10T11:59:57.671Z,22.60
2017-11-10T12:02:24.198Z,22.60
2017-11-10T12:04:51.461Z,24.70
2017-11-10T12:07:18.001Z,24.60
2017-11-10T12:09:44.585Z,25.80
2017-11-10T12:12:11.488Z,25.90
2017-11-10T12:14:38.202Z,25.00
2017-11-10T12:17:05.009Z,24.50
2017-11-10T12:19:33.085Z,24.90
2017-11-10T12:21:59.819Z,26.30
2017-11-10T12:24:26.305Z,26.80
2017-11-10T12:26:52.706Z,23.90
2017-11-10T12:29:19.438Z,21.10
2017-11-10T12:31:45.997Z,19.40
2017-11-10T12:34:13.189Z,17.60
2017-11-10T12:36:39.645Z,17.60
2017-11-10T12:39:06.072Z,16.80
2017-11-10T12:41:32.580Z,16.00
2017-11-10T12:43:59.077Z,16.70
2017-11-10T12:46:26.280Z,21.70
2017-11-10T12:48:52.729Z,21.70
2017-11-10T12:51:25.361Z,21.30
2017-11-10T12:53:51.819Z,21.40
2017-11-10T12:56:18.310Z,23.50
2017-11-10T12:58:45.518Z,21.80
2017-11-10T13:01:12.792Z,21.80
2017-11-10T13:03:39.325Z,20.40
2017-11-10T13:06:05.866Z,18.80
2017-11-10T13:08:32.261Z,17.40
2017-11-10T13:10:58.744Z,16.60
2017-11-10T13:13:25.391Z,15.70
2017-11-10T13:15:51.907Z,15.10
2017-11-10T13:18:18.451Z,14.50
2017-11-10T13:20:45.716Z,13.80
2017-11-10T13:23:12.876Z,13.50
2017-11-10T13:25:40.040Z,13.40
2017-11-10T13:28:06.469Z,13.30
2017-11-10T13:30:32.968Z,13.20
2017-11-10T13:32:59.494Z,13.10
2017-11-10T13:35:25.944Z,13.00
2017-11-10T13:37:52.364Z,12.90
2017-11-10T13:40:18.816Z,12.90
2017-11-10T13:42:45.962Z,13.00
2017-11-10T13:45:12.433Z,13.00
2017-11-10T13:47:38.874Z,13.00
2017-11-10T13:50:05.451Z,12.90
2017-11-10T13:52:31.872Z,12.70
2017-11-10T13:54:58.298Z,12.60
2017-11-10T13:57:24.741Z,12.60
2017-11-10T13:59:51.289Z,12.20
2017-11-10T14:02:17.710Z,12.10
2017-11-10T14:04:44.172Z,11.90
2017-11-10T14:07:11.578Z,12.00
2017-11-10T14:09:37.976Z,12.00
2017-11-10T14:12:04.404Z,12.00
2017-11-10T14:14:30.902Z,12.10
2017-11-10T14:16:57.334Z,12.00
2017-11-10T14:19:23.756Z,12.00
2017-11-10T14:21:50.213Z,11.90
2017-11-10T14:24:16.639Z,11.90
2017-11-10T14:26:43.055Z,11.90
2017-11-10T14:29:09.497Z,12.00
2017-11-10T14:31:35.915Z,11.90
2017-11-10T14:34:02.369Z,11.80
2017-11-10T14:36:28.808Z,11.70
2017-11-10T14:38:55.210Z,11.80
2017-11-10T14:41:21.703Z,11.90
2017-11-10T14:43:48.824Z,11.80
2017-11-10T14:46:15.282Z,11.80
2017-11-10T14:48:42.462Z,11.80
2017-11-10T14:51:08.909Z,11.80
2017-11-10T14:53:35.704Z,11.60
2017-11-10T14:56:02.358Z,11.60
2017-11-10T14:58:28.794Z,11.60
2017-11-10T15:00:55.273Z,11.50
2017-11-10T15:03:22.429Z,11.30
2017-11-10T15:05:48.893Z,11.30
2017-11-10T15:08:16.058Z,11.20
2017-11-10T15:10:42.939Z,11.10
2017-11-10T15:13:09.440Z,11.10
2017-11-10T15:15:35.957Z,11.10
2017-11-10T15:18:03.162Z,11.00
2017-11-10T15:20:29.647Z,11.00
2017-11-10T15:22:56.822Z,10.90
2017-11-10T15:25:23.257Z,10.90
2017-11-10T15:27:49.676Z,10.90
2017-11-10T15:30:16.125Z,10.80
2017-11-10T15:32:43.171Z,10.80
2017-11-10T15:35:09.632Z,10.80
2017-11-10T15:37:36.100Z,10.70
2017-11-10T15:40:03.314Z,10.70
2017-11-10T15:42:29.765Z,10.70
2017-11-10T15:44:56.269Z,10.60
2017-11-10T15:47:22.749Z,10.60
2017-11-10T15:49:49.220Z,10.60
2017-11-10T15:52:15.685Z,10.50
2017-11-10T15:54:42.113Z,10.40
2017-11-10T15:57:08.584Z,10.30
2017-11-10T15:59:35.000Z,10.30
2017-11-10T16:02:01.438Z,10.30
2017-11-10T16:04:27.888Z,10.30
2017-11-10T16:06:55.043Z,10.10
2017-11-10T16:09:22.237Z,10.00
2017-11-10T16:11:48.658Z,10.00
2017-11-10T16:14:15.073Z,10.00
2017-11-10T16:16:41.509Z,9.90
2017-11-10T16:19:07.909Z,9.70
2017-11-10T16:21:35.092Z,9.50
2017-11-10T16:24:01.540Z,9.40
2017-11-10T16:26:27.993Z,9.40
2017-11-10T16:28:54.395Z,9.30
2017-11-10T16:31:20.866Z,9.30
2017-11-10T16:33:47.272Z,9.20
2017-11-10T16:36:13.662Z,9.10
2017-11-10T16:38:40.833Z,9.00
2017-11-10T16:41:07.429Z,9.00
2017-11-10T16:43:34.198Z,9.00
2017-11-10T16:46:00.789Z,8.90
2017-11-10T16:48:30.245Z,8.80
2017-11-10T16:50:58.394Z,8.80
2017-11-10T16:53:25.583Z,8.80
2017-11-10T16:55:52.092Z,8.70
2017-11-10T16:58:19.249Z,8.70
2017-11-10T17:00:46.442Z,8.60
2017-11-10T17:03:12.885Z,8.60
2017-11-10T17:05:39.366Z,8.50
2017-11-10T17:08:06.596Z,8.40
2017-11-10T17:10:33.052Z,8.40
2017-11-10T17:13:00.233Z,8.40
2017-11-10T17:15:26.681Z,8.30
2017-11-10T17:17:53.113Z,8.40
2017-11-10T17:20:19.626Z,8.40
2017-11-10T17:22:46.109Z,8.40
2017-11-10T17:25:12.505Z,8.30
2017-11-10T17:27:38.969Z,8.20
2017-11-10T17:30:05.442Z,8.20
2017-11-10T17:32:31.923Z,8.20
2017-11-10T17:34:58.402Z,8.10
2017-11-10T17:37:25.542Z,8.10
2017-11-10T17:39:52.014Z,8.10
2017-11-10T17:42:18.473Z,8.10
2017-11-10T17:44:44.946Z,8.00
2017-11-10T17:47:11.376Z,8.00
2017-11-10T17:49:37.808Z,7.90
2017-11-10T17:52:04.263Z,7.90
2017-11-10T17:54:30.706Z,7.90
2017-11-10T17:56:58.117Z,7.80
2017-11-10T17:59:24.593Z,7.90
2017-11-10T18:01:51.062Z,7.90
2017-11-10T18:04:17.483Z,7.90
2017-11-10T18:06:43.949Z,7.80
2017-11-10T18:09:10.443Z,7.80
2017-11-10T18:11:36.911Z,7.70
2017-11-10T18:14:03.370Z,7.60
2017-11-10T18:16:29.762Z,7.60
2017-11-10T18:18:56.161Z,7.60
2017-11-10T18:21:22.655Z,7.50
2017-11-10T18:23:49.069Z,7.50
2017-11-10T18:26:15.509Z,7.40
2017-11-10T18:28:49.778Z,7.30
2017-11-10T18:31:16.196Z,7.30
2017-11-10T18:33:43.356Z,7.30
2017-11-10T18:36:10.585Z,7.30
2017-11-10T18:38:37.005Z,7.20
2017-11-10T18:41:03.615Z,7.20
2017-11-10T18:43:30.094Z,7.10
2017-11-10T18:45:56.521Z,7.10
2017-11-10T18:48:28.873Z,7.00
2017-11-10T18:50:55.292Z,7.00
2017-11-10T18:53:25.674Z,7.00
2017-11-10T18:55:52.848Z,7.10
2017-11-10T18:58:19.289Z,7.10
2017-11-10T19:00:45.767Z,7.20
2017-11-10T19:03:12.236Z,7.30
2017-11-10T19:05:38.680Z,7.40
2017-11-10T19:08:05.156Z,7.40
2017-11-10T19:10:31.597Z,7.30
2017-11-10T19:12:57.995Z,7.30
2017-11-10T19:15:24.461Z,7.40
2017-11-10T19:17:50.894Z,7.40
2017-11-10T19:20:17.323Z,7.50
2017-11-10T19:22:43.734Z,7.40
2017-11-10T19:25:10.157Z,7.40
2017-11-10T19:27:36.604Z,7.30
2017-11-10T19:30:03.106Z,7.30
2017-11-10T19:32:29.525Z,7.30
2017-11-10T19:34:56.739Z,7.40
2017-11-10T19:37:23.163Z,7.40
2017-11-10T19:40:01.918Z,7.40
2017-11-10T19:42:29.081Z,7.40
2017-11-10T19:44:56.400Z,7.40
2017-11-10T19:47:22.859Z,7.40
2017-11-10T19:49:53.709Z,7.30
2017-11-10T19:52:20.185Z,7.30
2017-11-10T19:54:46.637Z,7.40
2017-11-10T19:57:13.040Z,7.40
2017-11-10T19:59:39.469Z,7.30
2017-11-10T20:02:05.889Z,7.30
2017-11-10T20:04:32.313Z,7.30
2017-11-10T20:06:58.735Z,7.40
2017-11-10T20:09:25.225Z,7.40
2017-11-10T20:11:51.716Z,7.50
2017-11-10T20:14:18.133Z,7.50
2017-11-10T20:16:45.324Z,7.60
2017-11-10T20:19:11.812Z,7.60
2017-11-10T20:21:38.973Z,7.60
2017-11-10T20:24:07.169Z,7.60
2017-11-10T20:26:33.596Z,7.50
2017-11-10T20:29:00.027Z,7.50
2017-11-10T20:31:26.433Z,7.60
2017-11-10T20:33:53.590Z,7.40
2017-11-10T20:36:20.773Z,7.30
2017-11-10T20:38:47.196Z,7.30
2017-11-10T20:41:14.571Z,7.30
2017-11-10T20:43:40.999Z,7.40
2017-11-10T20:46:07.421Z,7.40
2017-11-10T20:48:33.914Z,7.40
2017-11-10T20:51:00.329Z,7.40
2017-11-10T20:53:27.021Z,7.40
2017-11-10T20:55:53.450Z,7.40
2017-11-10T20:58:19.843Z,7.40
2017-11-10T21:00:46.248Z,7.30
2017-11-10T21:03:12.681Z,7.40
2017-11-10T21:05:39.093Z,7.40
2017-11-10T21:08:06.274Z,7.50
2017-11-10T21:10:32.705Z,7.50
2017-11-10T21:12:59.400Z,7.50
2017-11-10T21:15:25.849Z,7.50
2017-11-10T21:17:52.282Z,7.50
2017-11-10T21:20:18.739Z,7.50
2017-11-10T21:22:45.224Z,7.50
2017-11-10T21:25:12.396Z,7.60
2017-11-10T21:27:38.824Z,7.60
2017-11-10T21:30:05.274Z,7.60
2017-11-10T21:32:31.709Z,7.60
2017-11-10T21:34:58.113Z,7.50
2017-11-10T21:37:25.309Z,7.40
2017-11-10T21:39:51.725Z,7.40
2017-11-10T21:42:18.179Z,7.40
2017-11-10T21:44:44.637Z,7.20
2017-11-10T21:47:11.097Z,7.20
2017-11-10T21:49:38.269Z,7.20
2017-11-10T21:52:05.558Z,7.20
2017-11-10T21:54:32.015Z,7.20
2017-11-10T21:56:59.206Z,7.20
2017-11-10T21:59:25.664Z,7.20
2017-11-10T22:01:52.861Z,7.20
2017-11-10T22:04:20.051Z,7.20
2017-11-10T22:06:46.480Z,7.20
2017-11-10T22:09:12.903Z,7.20
2017-11-10T22:11:39.318Z,7.20
2017-11-10T22:14:05.789Z,7.20
2017-11-10T22:16:32.186Z,7.20
2017-11-10T22:18:58.643Z,7.20
2017-11-10T22:21:25.153Z,7.20
2017-11-10T22:23:51.613Z,7.20
2017-11-10T22:26:18.005Z,7.20
2017-11-10T22:28:45.185Z,7.10
2017-11-10T22:31:11.593Z,7.00
2017-11-10T22:33:38.772Z,6.90
2017-11-10T22:36:05.209Z,6.90
2017-11-10T22:38:31.608Z,6.80
2017-11-10T22:40:58.831Z,6.60
2017-11-10T22:43:26.158Z,6.60
2017-11-10T22:45:52.578Z,6.60
2017-11-10T22:48:18.992Z,6.50
2017-11-10T22:50:45.386Z,6.40
2017-11-10T22:53:12.075Z,6.40
2017-11-10T22:55:38.485Z,6.40
2017-11-10T22:58:05.624Z,6.40
2017-11-10T23:00:32.048Z,6.40
2017-11-10T23:02:58.465Z,6.30
2017-11-10T23:05:24.881Z,6.30
2017-11-10T23:07:51.276Z,6.30
2017-11-10T23:10:17.715Z,6.30
2017-11-10T23:12:44.121Z,6.20
2017-11-10T23:15:10.585Z,6.10
2017-11-10T23:17:37.032Z,6.10
2017-11-10T23:20:03.452Z,6.10
2017-11-10T23:22:29.912Z,6.10
2017-11-10T23:24:56.297Z,6.00
2017-11-10T23:27:23.473Z,6.00
2017-11-10T23:29:49.922Z,6.00
2017-11-10T23:32:16.345Z,5.90
2017-11-10T23:34:42.740Z,6.00
2017-11-10T23:37:09.889Z,5.90
2017-11-10T23:39:37.025Z,5.90
2017-11-10T23:42:03.464Z,5.80
2017-11-10T23:44:29.877Z,5.80
2017-11-10T23:46:56.313Z,5.70
2017-11-10T23:49:22.721Z,5.60
2017-11-10T23:51:49.153Z,5.60
2017-11-10T23:54:15.561Z,5.50
2017-11-10T23:56:41.993Z,5.50
2017-11-10T23:59:08.392Z,5.50
